createdAt,value
2023-01-05T00:01:39.271Z,9.90
2023-01-05T00:04:08.358Z,9.90
2023-01-05T00:06:37.574Z,9.90
2023-01-05T00:09:05.613Z,9.90
2023-01-05T00:11:51.274Z,10.00
2023-01-05T00:14:40.639Z,10.00
2023-01-05T00:17:29.370Z,10.10
2023-01-05T00:20:14.890Z,10.20
2023-01-05T00:22:48.110Z,10.30
2023-01-05T00:25:18.888Z,10.40
2023-01-05T00:27:50.727Z,10.40
2023-01-05T00:30:22.576Z,10.40
2023-01-05T00:32:51.383Z,10.50
2023-01-05T00:35:20.023Z,10.50
2023-01-05T00:37:49.295Z,10.50
2023-01-05T00:40:20.564Z,10.50
2023-01-05T00:42:50.070Z,10.50
2023-01-05T00:45:21.923Z,10.50
2023-01-05T00:47:51.763Z,10.50
2023-01-05T00:50:21.269Z,10.40
2023-01-05T00:52:49.855Z,10.50
2023-01-05T00:55:18.287Z,10.40
2023-01-05T00:57:46.408Z,10.40
2023-01-05T01:00:19.618Z,10.40
2023-01-05T01:02:48.477Z,10.30
2023-01-05T01:05:16.496Z,10.30
2023-01-05T01:07:44.458Z,10.30
2023-01-05T01:10:13.464Z,10.20
2023-01-05T01:15:10.476Z,10.20
2023-01-05T01:17:39.749Z,10.20
2023-01-05T01:20:09.806Z,10.30
2023-01-05T01:22:37.702Z,10.30
2023-01-05T01:25:06.811Z,10.20
2023-01-05T01:27:35.318Z,10.20
2023-01-05T01:30:03.261Z,10.20
2023-01-05T01:32:31.171Z,10.10
2023-01-05T01:35:00.389Z,10.10
2023-01-05T01:37:28.345Z,10.10
2023-01-05T01:39:58.407Z,10.00
2023-01-05T01:42:26.717Z,10.00
2023-01-05T01:44:59.522Z,10.00
2023-01-05T01:47:42.827Z,9.90
2023-01-05T01:50:20.128Z,9.90
2023-01-05T01:52:53.713Z,9.90
2023-01-05T01:55:22.592Z,9.90
2023-01-05T01:57:52.706Z,9.90
2023-01-05T02:00:21.499Z,9.80
2023-01-05T02:02:56.622Z,9.80
2023-01-05T02:05:31.327Z,9.80
2023-01-05T02:07:59.916Z,9.80
2023-01-05T02:10:50.631Z,9.80
2023-01-05T02:13:44.128Z,9.80
2023-01-05T02:16:25.512Z,9.80
2023-01-05T02:19:34.570Z,9.80
2023-01-05T02:22:31.126Z,9.90
2023-01-05T02:25:30.343Z,9.90
2023-01-05T02:28:13.122Z,9.90
2023-01-05T02:31:07.901Z,10.00
2023-01-05T02:33:55.714Z,10.00
2023-01-05T02:36:30.848Z,10.00
2023-01-05T02:39:12.622Z,10.00
2023-01-05T02:41:48.299Z,10.00
2023-01-05T02:44:19.276Z,10.00
2023-01-05T02:47:03.777Z,10.00
2023-01-05T02:49:37.024Z,10.00
2023-01-05T02:52:09.753Z,10.00
2023-01-05T02:54:46.743Z,10.10
2023-01-05T02:57:21.066Z,10.10
2023-01-05T02:59:55.184Z,10.10
2023-01-05T03:02:32.697Z,10.00
2023-01-05T03:05:09.226Z,10.00
2023-01-05T03:07:41.348Z,10.00
2023-01-05T03:10:32.542Z,10.00
2023-01-05T03:13:27.406Z,9.90
2023-01-05T03:16:01.931Z,9.90
2023-01-05T03:18:54.815Z,9.90
2023-01-05T03:21:24.619Z,9.90
2023-01-05T03:24:11.625Z,9.80
2023-01-05T03:26:58.463Z,9.90
2023-01-05T03:29:45.507Z,9.80
2023-01-05T03:32:41.505Z,9.80
2023-01-05T03:35:33.096Z,9.80
2023-01-05T03:38:18.233Z,9.90
2023-01-05T03:40:52.110Z,10.00
2023-01-05T03:43:22.256Z,10.20
2023-01-05T03:45:55.696Z,10.30
2023-01-05T03:48:29.025Z,10.40
2023-01-05T03:50:58.580Z,10.50
2023-01-05T03:53:27.851Z,10.40
2023-01-05T03:55:55.788Z,10.40
2023-01-05T03:58:25.896Z,10.40
2023-01-05T04:00:54.252Z,10.50
2023-01-05T04:03:31.100Z,10.50
2023-01-05T04:06:02.144Z,10.60
2023-01-05T04:08:31.913Z,10.60
2023-01-05T04:11:13.767Z,10.60
2023-01-05T04:13:42.361Z,10.60
2023-01-05T04:16:10.499Z,10.70
2023-01-05T04:18:40.246Z,10.70
2023-01-05T04:21:12.165Z,10.60
2023-01-05T04:23:40.799Z,10.70
2023-01-05T04:26:09.591Z,10.70
2023-01-05T04:28:38.576Z,10.60
2023-01-05T04:31:06.708Z,10.60
2023-01-05T04:33:35.193Z,10.60
2023-01-05T04:36:04.952Z,10.60
2023-01-05T04:38:34.799Z,10.50
2023-01-05T04:41:02.935Z,10.50
2023-01-05T04:43:31.013Z,10.40
2023-01-05T04:46:02.327Z,10.50
2023-01-05T04:48:31.863Z,10.40
2023-01-05T04:51:00.644Z,10.40
2023-01-05T04:53:34.464Z,10.40
2023-01-05T04:56:03.504Z,10.30
2023-01-05T04:58:36.201Z,10.40
2023-01-05T05:01:04.362Z,10.40
2023-01-05T05:03:35.405Z,10.40
2023-01-05T05:06:07.033Z,10.30
2023-01-05T05:08:36.344Z,10.30
2023-01-05T05:11:05.957Z,10.30
2023-01-05T05:13:37.013Z,10.30
2023-01-05T05:16:05.529Z,10.30
2023-01-05T05:18:34.977Z,10.30
2023-01-05T05:21:05.101Z,10.30
2023-01-05T05:23:38.296Z,10.30
2023-01-05T05:26:06.669Z,10.30
2023-01-05T05:28:35.769Z,10.20
2023-01-05T05:31:03.748Z,10.20
2023-01-05T05:33:31.672Z,10.20
2023-01-05T05:35:59.551Z,10.10
2023-01-05T05:38:27.472Z,10.10
2023-01-05T05:40:56.717Z,10.10
2023-01-05T05:43:24.574Z,10.10
2023-01-05T05:45:52.516Z,10.00
2023-01-05T05:48:20.614Z,10.00
2023-01-05T05:50:48.628Z,10.00
2023-01-05T05:53:16.582Z,9.90
2023-01-05T05:55:48.701Z,9.90
2023-01-05T05:58:18.033Z,9.90
2023-01-05T06:00:46.345Z,9.80
2023-01-05T06:03:14.652Z,9.80
2023-01-05T06:05:42.719Z,9.80
2023-01-05T06:08:10.932Z,9.80
2023-01-05T06:10:38.862Z,9.80
2023-01-05T06:13:07.172Z,9.80
2023-01-05T06:15:36.415Z,9.80
2023-01-05T06:18:04.533Z,9.80
2023-01-05T06:20:32.517Z,9.80
2023-01-05T06:23:00.467Z,9.80
2023-01-05T06:25:28.560Z,9.80
2023-01-05T06:27:56.513Z,9.80
2023-01-05T06:30:24.386Z,9.70
2023-01-05T06:32:53.715Z,9.70
2023-01-05T06:35:21.958Z,9.70
2023-01-05T06:37:49.953Z,9.60
2023-01-05T06:40:18.132Z,9.60
2023-01-05T06:42:46.043Z,9.60
2023-01-05T06:45:16.411Z,9.60
2023-01-05T06:47:45.149Z,9.60
2023-01-05T06:50:14.470Z,9.50
2023-01-05T06:52:42.464Z,9.60
2023-01-05T06:55:12.813Z,9.60
2023-01-05T06:57:40.989Z,9.50
2023-01-05T07:00:12.753Z,9.50
2023-01-05T07:02:40.753Z,9.50
2023-01-05T07:05:09.894Z,9.50
2023-01-05T07:07:39.360Z,9.50
2023-01-05T07:10:08.549Z,9.40
2023-01-05T07:12:36.632Z,9.30
2023-01-05T07:15:06.062Z,9.30
2023-01-05T07:17:34.453Z,9.20
2023-01-05T07:20:02.419Z,9.20
2023-01-05T07:22:31.508Z,9.20
2023-01-05T07:25:01.187Z,9.20
2023-01-05T07:27:29.076Z,9.10
2023-01-05T07:29:56.996Z,9.10
2023-01-05T07:32:24.894Z,9.10
2023-01-05T07:34:55.710Z,9.10
2023-01-05T07:37:25.520Z,9.00
2023-01-05T07:39:53.799Z,9.00
2023-01-05T07:42:23.108Z,9.00
2023-01-05T07:44:52.451Z,8.90
2023-01-05T07:47:20.492Z,8.90
2023-01-05T07:49:48.421Z,8.90
2023-01-05T07:52:17.063Z,8.90
2023-01-05T07:54:45.273Z,8.90
2023-01-05T07:57:13.232Z,8.90
2023-01-05T07:59:42.531Z,8.90
2023-01-05T08:02:11.660Z,8.90
2023-01-05T08:04:39.870Z,8.90
2023-01-05T08:07:11.224Z,8.90
2023-01-05T08:09:56.725Z,8.90
2023-01-05T08:12:24.649Z,8.90
2023-01-05T08:14:53.937Z,8.90
2023-01-05T08:17:21.895Z,8.90
2023-01-05T08:19:49.886Z,9.00
2023-01-05T08:22:17.936Z,9.00
2023-01-05T08:24:45.864Z,9.00
2023-01-05T08:27:13.827Z,9.10
2023-01-05T08:29:41.765Z,9.10
2023-01-05T08:32:11.124Z,9.10
2023-01-05T08:34:39.261Z,9.20
2023-01-05T08:37:07.232Z,9.20
2023-01-05T08:39:36.354Z,9.20
2023-01-05T08:42:04.415Z,9.20
2023-01-05T08:44:32.343Z,9.30
2023-01-05T08:47:00.306Z,9.30
2023-01-05T08:49:29.564Z,9.30
2023-01-05T08:51:57.525Z,9.30
2023-01-05T08:54:25.435Z,9.40
2023-01-05T08:56:53.320Z,9.40
2023-01-05T08:59:21.235Z,9.40
2023-01-05T09:01:49.273Z,9.40
2023-01-05T09:04:17.312Z,9.40
2023-01-05T09:06:46.673Z,9.50
2023-01-05T09:09:14.582Z,9.50
2023-01-05T09:11:42.732Z,9.50
2023-01-05T09:14:15.380Z,9.60
2023-01-05T09:17:12.189Z,9.60
2023-01-05T09:19:31.403Z,9.50
2023-01-05T09:22:00.690Z,9.50
2023-01-05T09:24:28.604Z,9.60
2023-01-05T09:26:57.313Z,9.60
2023-01-05T09:29:25.302Z,9.60
2023-01-05T09:31:53.235Z,9.70
2023-01-05T09:34:21.258Z,9.70
2023-01-05T09:36:49.320Z,9.70
2023-01-05T09:39:19.085Z,9.70
2023-01-05T09:41:52.142Z,9.70
2023-01-05T09:44:30.407Z,9.70
2023-01-05T09:47:04.360Z,9.70
2023-01-05T09:49:34.891Z,9.70
2023-01-05T09:52:09.307Z,9.70
2023-01-05T09:54:41.120Z,9.80
2023-01-05T09:57:18.429Z,9.80
2023-01-05T09:59:50.765Z,9.80
2023-01-05T10:02:27.867Z,9.80
2023-01-05T10:04:57.787Z,9.80
2023-01-05T10:07:39.373Z,9.80
2023-01-05T10:10:30.616Z,9.80
2023-01-05T10:13:04.153Z,9.80
2023-01-05T10:15:40.720Z,9.80
2023-01-05T10:18:15.774Z,9.90
2023-01-05T10:21:02.523Z,9.80
2023-01-05T10:24:02.493Z,9.80
2023-01-05T10:27:22.625Z,9.90
2023-01-05T10:29:40.951Z,9.80
2023-01-05T10:32:24.696Z,9.80
2023-01-05T10:35:02.622Z,9.80
2023-01-05T10:37:53.543Z,9.80
2023-01-05T10:40:39.187Z,9.80
2023-01-05T10:43:55.888Z,9.90
2023-01-05T10:46:42.785Z,9.90
2023-01-05T10:49:21.311Z,9.90
2023-01-05T10:51:56.496Z,9.90
2023-01-05T10:54:38.064Z,9.90
2023-01-05T10:57:40.970Z,9.90
2023-01-05T11:00:15.935Z,9.90
2023-01-05T11:02:51.956Z,9.80
2023-01-05T11:05:39.718Z,9.80
2023-01-05T11:08:16.505Z,9.80
2023-01-05T11:10:53.638Z,9.90
2023-01-05T11:13:32.165Z,9.90
2023-01-05T11:16:10.674Z,9.90
2023-01-05T11:18:49.205Z,9.90
2023-01-05T11:21:19.711Z,9.90
2023-01-05T11:23:51.079Z,9.90
2023-01-05T11:26:29.966Z,9.90
2023-01-05T11:29:14.698Z,9.90
2023-01-05T11:31:50.728Z,10.00
2023-01-05T11:34:38.561Z,10.00
2023-01-05T11:37:21.601Z,9.90
2023-01-05T11:39:53.840Z,9.80
2023-01-05T11:42:31.483Z,9.70
2023-01-05T11:45:02.667Z,9.60
2023-01-05T11:47:43.493Z,9.60
2023-01-05T11:50:22.508Z,9.60
2023-01-05T11:52:54.809Z,9.50
2023-01-05T11:55:34.573Z,9.40
2023-01-05T11:58:24.104Z,9.30
2023-01-05T12:01:35.886Z,9.30
2023-01-05T12:05:03.603Z,9.40
2023-01-05T12:07:35.901Z,9.40
2023-01-05T12:10:33.352Z,9.40
2023-01-05T12:13:13.171Z,9.50
2023-01-05T12:16:19.258Z,9.40
2023-01-05T12:19:25.387Z,9.40
2023-01-05T12:22:21.491Z,9.40
2023-01-05T12:25:12.746Z,9.40
2023-01-05T12:28:11.325Z,9.40
2023-01-05T12:34:16.070Z,9.40
2023-01-05T12:37:22.727Z,9.50
2023-01-05T12:40:25.646Z,9.40
2023-01-05T12:43:01.765Z,9.40
2023-01-05T12:46:13.482Z,9.40
2023-01-05T12:48:46.771Z,9.40
2023-01-05T12:51:22.569Z,9.40
2023-01-05T12:54:00.630Z,9.40
2023-01-05T12:56:37.283Z,9.50
2023-01-05T12:59:16.559Z,9.60
2023-01-05T13:01:53.896Z,9.60
2023-01-05T13:04:46.789Z,9.60
2023-01-05T13:07:25.426Z,9.70
2023-01-05T13:10:03.642Z,9.70
2023-01-05T13:12:33.999Z,9.70
2023-01-05T13:15:16.383Z,9.70
2023-01-05T13:17:49.643Z,9.70
2023-01-05T13:20:28.781Z,9.70
2023-01-05T13:23:04.004Z,9.70
2023-01-05T13:25:47.717Z,9.70
2023-01-05T13:28:21.633Z,9.80
2023-01-05T13:31:18.529Z,9.70
2023-01-05T13:34:23.792Z,9.70
2023-01-05T13:37:33.921Z,9.70
2023-01-05T13:40:24.499Z,9.60
2023-01-05T13:44:00.838Z,9.70
2023-01-05T13:46:50.261Z,9.70
2023-01-05T13:50:00.631Z,9.70
2023-01-05T13:52:50.011Z,9.70
2023-01-05T13:55:26.327Z,9.70
2023-01-05T13:57:56.363Z,9.70
2023-01-05T14:00:31.542Z,9.70
2023-01-05T14:03:08.093Z,9.70
2023-01-05T14:05:49.426Z,9.70
2023-01-05T14:08:25.820Z,9.70
2023-01-05T14:11:14.750Z,9.70
2023-01-05T14:13:49.765Z,9.70
2023-01-05T14:16:55.544Z,9.60
2023-01-05T14:19:51.262Z,9.70
2023-01-05T14:22:39.944Z,9.70
2023-01-05T14:25:47.086Z,9.70
2023-01-05T14:28:43.379Z,9.70
2023-01-05T14:31:47.783Z,9.70
2023-01-05T14:34:21.487Z,9.70
2023-01-05T14:37:07.846Z,9.60
2023-01-05T14:39:44.194Z,9.60
2023-01-05T14:42:31.086Z,9.60
2023-01-05T14:45:03.135Z,9.70
2023-01-05T14:47:40.880Z,9.70
2023-01-05T14:50:36.196Z,9.60
2023-01-05T14:53:33.103Z,9.60
2023-01-05T14:56:22.592Z,9.50
2023-01-05T14:59:14.576Z,9.50
2023-01-05T15:01:52.326Z,9.60
2023-01-05T15:04:27.716Z,9.40
2023-01-05T15:07:29.896Z,9.30
2023-01-05T15:10:39.533Z,9.30
2023-01-05T15:13:42.453Z,9.20
2023-01-05T15:16:20.828Z,9.20
2023-01-05T15:19:22.093Z,9.10
2023-01-05T15:22:37.231Z,9.10
2023-01-05T15:25:37.677Z,9.10
2023-01-05T15:28:39.338Z,9.10
2023-01-05T15:31:34.738Z,9.00
2023-01-05T15:34:17.878Z,9.00
2023-01-05T15:36:54.548Z,9.00
2023-01-05T15:39:31.580Z,8.90
2023-01-05T15:42:06.985Z,8.90
2023-01-05T15:44:39.994Z,8.90
2023-01-05T15:47:11.398Z,8.90
2023-01-05T15:49:40.893Z,8.80
2023-01-05T15:52:21.857Z,8.90
2023-01-05T15:55:04.309Z,8.90
2023-01-05T15:57:32.508Z,8.90
2023-01-05T16:00:00.446Z,8.90
2023-01-05T16:02:30.958Z,8.90
2023-01-05T16:05:15.234Z,8.80
2023-01-05T16:07:54.189Z,8.90
2023-01-05T16:10:28.600Z,8.90
2023-01-05T16:13:03.304Z,8.90
2023-01-05T16:15:35.569Z,8.90
2023-01-05T16:18:13.131Z,8.90
2023-01-05T16:20:46.553Z,9.00
2023-01-05T16:23:22.551Z,9.00
2023-01-05T16:25:56.552Z,9.00
2023-01-05T16:28:26.374Z,9.00
2023-01-05T16:30:56.501Z,9.00
2023-01-05T16:33:35.058Z,9.00
2023-01-05T16:36:18.376Z,9.10
2023-01-05T16:38:47.148Z,9.10
2023-01-05T16:41:22.737Z,9.10
2023-01-05T16:43:57.797Z,9.00
2023-01-05T16:46:35.261Z,9.00
2023-01-05T16:49:26.226Z,9.00
2023-01-05T16:51:57.436Z,8.90
2023-01-05T16:54:36.233Z,8.90
2023-01-05T16:57:31.862Z,8.90
2023-01-05T17:00:00.252Z,8.90
2023-01-05T17:02:45.033Z,8.90
2023-01-05T17:05:19.070Z,8.90
2023-01-05T17:07:50.790Z,8.90
2023-01-05T17:10:24.115Z,8.80
2023-01-05T17:13:01.125Z,8.80
2023-01-05T17:15:34.369Z,8.80
2023-01-05T17:18:10.280Z,8.70
2023-01-05T17:20:42.788Z,8.70
2023-01-05T17:23:17.264Z,8.70
2023-01-05T17:25:45.247Z,8.70
2023-01-05T17:28:14.540Z,8.60
2023-01-05T17:30:43.176Z,8.60
2023-01-05T17:33:11.352Z,8.60
2023-01-05T17:35:39.353Z,8.50
2023-01-05T17:38:07.293Z,8.50
2023-01-05T17:40:35.215Z,8.50
2023-01-05T17:43:03.378Z,8.40
2023-01-05T17:45:33.529Z,8.40
2023-01-05T17:48:01.481Z,8.40
2023-01-05T17:53:06.529Z,8.30
2023-01-05T17:55:34.710Z,8.30
2023-01-05T17:58:02.993Z,8.30
2023-01-05T18:00:39.561Z,8.30
2023-01-05T18:03:10.048Z,8.20
2023-01-05T18:05:38.047Z,8.20
2023-01-05T18:13:15.179Z,8.10
2023-01-05T18:15:49.522Z,8.10
2023-01-05T18:18:17.980Z,8.10
2023-01-05T18:20:45.891Z,8.10
2023-01-05T18:23:13.844Z,8.10
2023-01-05T18:25:41.691Z,8.10
2023-01-05T18:28:09.588Z,8.10
2023-01-05T18:30:37.587Z,8.10
2023-01-05T18:33:06.860Z,8.10
2023-01-05T18:35:36.137Z,8.10
2023-01-05T18:38:05.326Z,8.20
2023-01-05T18:40:33.383Z,8.10
2023-01-05T18:43:01.344Z,8.10
2023-01-05T18:45:38.633Z,8.10
2023-01-05T18:48:09.646Z,8.00
2023-01-05T18:50:43.177Z,8.00
2023-01-05T18:53:11.682Z,8.10
2023-01-05T18:55:42.506Z,8.10
2023-01-05T18:58:11.926Z,8.10
2023-01-05T19:00:41.109Z,8.10
2023-01-05T19:03:11.454Z,8.10
2023-01-05T19:05:41.039Z,8.00
2023-01-05T19:08:09.475Z,8.00
2023-01-05T19:10:37.924Z,8.10
2023-01-05T19:13:06.893Z,8.00
2023-01-05T19:15:36.193Z,8.10
2023-01-05T19:18:05.742Z,8.00
2023-01-05T19:20:35.112Z,7.90
2023-01-05T19:23:03.076Z,8.00
2023-01-05T19:25:31.637Z,8.00
2023-01-05T19:28:02.154Z,8.00
2023-01-05T19:30:31.068Z,8.00
2023-01-05T19:32:58.977Z,8.00
2023-01-05T19:35:28.420Z,8.10
2023-01-05T19:37:58.035Z,8.00
2023-01-05T19:40:25.965Z,8.10
2023-01-05T19:42:54.361Z,8.10
2023-01-05T19:45:22.297Z,8.00
2023-01-05T19:47:50.269Z,8.00
2023-01-05T19:50:18.268Z,8.10
2023-01-05T19:52:46.428Z,8.00
2023-01-05T19:55:15.722Z,7.90
2023-01-05T19:57:43.663Z,8.00
2023-01-05T20:00:14.233Z,7.90
2023-01-05T20:02:42.935Z,7.90
2023-01-05T20:05:13.879Z,7.90
2023-01-05T20:07:43.430Z,7.90
2023-01-05T20:10:11.681Z,8.00
2023-01-05T20:12:41.051Z,8.00
2023-01-05T20:15:11.823Z,8.00
2023-01-05T20:17:42.265Z,8.00
2023-01-05T20:20:12.759Z,8.00
2023-01-05T20:22:41.324Z,8.00
2023-01-05T20:25:10.264Z,8.00
2023-01-05T20:27:38.200Z,8.10
2023-01-05T20:30:09.834Z,8.10
2023-01-05T20:32:37.761Z,8.10
2023-01-05T20:35:07.000Z,8.10
2023-01-05T20:37:35.055Z,8.20
2023-01-05T20:40:04.553Z,8.20
2023-01-05T20:42:33.087Z,8.20
2023-01-05T20:45:02.915Z,8.20
2023-01-05T20:47:43.286Z,8.20
2023-01-05T20:50:14.806Z,8.20
2023-01-05T20:52:42.734Z,8.20
2023-01-05T20:55:10.678Z,8.20
2023-01-05T20:57:38.576Z,8.20
2023-01-05T21:00:07.924Z,8.20
2023-01-05T21:02:37.373Z,8.30
2023-01-05T21:05:06.060Z,8.20
2023-01-05T21:07:33.990Z,8.20
2023-01-05T21:10:02.173Z,8.20
2023-01-05T21:12:30.053Z,8.20
2023-01-05T21:14:57.979Z,8.20
2023-01-05T21:17:25.918Z,8.20
2023-01-05T21:19:55.465Z,8.20
2023-01-05T21:22:23.371Z,8.10
2023-01-05T21:24:51.311Z,8.10
2023-01-05T21:27:19.284Z,8.10
2023-01-05T21:29:47.210Z,8.00
2023-01-05T21:32:15.168Z,8.00
2023-01-05T21:34:43.113Z,7.90
2023-01-05T21:37:12.455Z,7.80
2023-01-05T21:39:40.338Z,7.90
2023-01-05T21:42:34.605Z,7.90
2023-01-05T21:45:02.489Z,7.70
2023-01-05T21:47:30.412Z,7.70
2023-01-05T21:49:58.379Z,7.70
2023-01-05T21:52:45.026Z,7.70
2023-01-05T21:55:30.689Z,7.70
2023-01-05T21:57:58.621Z,7.60
2023-01-05T22:00:27.198Z,7.60
2023-01-05T22:02:55.491Z,7.60
2023-01-05T22:05:23.420Z,7.70
2023-01-05T22:07:52.781Z,7.70
2023-01-05T22:10:20.753Z,7.70
2023-01-05T22:12:48.664Z,7.70
2023-01-05T22:15:16.691Z,7.70
2023-01-05T22:17:44.596Z,7.80
2023-01-05T22:20:14.653Z,7.80
2023-01-05T22:22:43.608Z,7.80
2023-01-05T22:25:12.829Z,7.70
2023-01-05T22:27:40.731Z,7.70
2023-01-05T22:30:10.058Z,7.60
2023-01-05T22:32:37.968Z,7.60
2023-01-05T22:35:07.295Z,7.60
2023-01-05T22:37:35.465Z,7.70
2023-01-05T22:40:03.480Z,7.70
2023-01-05T22:42:32.741Z,7.70
2023-01-05T22:45:00.654Z,7.70
2023-01-05T22:47:28.499Z,7.70
2023-01-05T22:49:56.408Z,7.70
2023-01-05T22:52:24.816Z,7.70
2023-01-05T22:54:53.281Z,7.70
2023-01-05T22:57:21.204Z,7.70
2023-01-05T22:59:50.447Z,7.70
2023-01-05T23:02:18.455Z,7.70
2023-01-05T23:04:46.366Z,7.80
2023-01-05T23:07:14.358Z,7.80
2023-01-05T23:09:42.411Z,7.80
2023-01-05T23:12:11.941Z,7.70
2023-01-05T23:14:39.989Z,7.70
2023-01-05T23:17:12.220Z,7.80
2023-01-05T23:19:40.438Z,7.80
2023-01-05T23:22:10.698Z,7.70
2023-01-05T23:24:39.374Z,7.70
2023-01-05T23:27:07.450Z,7.80
2023-01-05T23:29:35.580Z,7.70
2023-01-05T23:32:04.128Z,7.70
2023-01-05T23:34:33.391Z,7.70
2023-01-05T23:37:01.357Z,7.80
2023-01-05T23:39:29.228Z,7.80
2023-01-05T23:41:57.160Z,7.70
2023-01-05T23:44:25.036Z,7.70
2023-01-05T23:46:52.970Z,7.80
2023-01-05T23:49:20.883Z,7.80
2023-01-05T23:51:50.136Z,7.80
2023-01-05T23:54:18.246Z,7.70
2023-01-05T23:56:46.282Z,7.80
2023-01-05T23:59:14.220Z,7.70
